sensor_id;sensor_type;location;lat;lon;timestamp;pressure;altitude;pressure_sealevel;temperature
74321;BMP280;62738;45.772;4.804;2023-05-29T00:00:42;99383.06;;;21.52
74321;BMP280;62738;45.772;4.804;2023-05-29T00:03:09;99388.72;;;21.52
74321;BMP280;62738;45.772;4.804;2023-05-29T00:05:36;99382.47;;;21.33
74321;BMP280;62738;45.772;4.804;2023-05-29T00:08:03;99390.22;;;21.33
74321;BMP280;62738;45.772;4.804;2023-05-29T00:10:29;99375.09;;;21.24
74321;BMP280;62738;45.772;4.804;2023-05-29T00:12:57;99367.06;;;21.17
74321;BMP280;62738;45.772;4.804;2023-05-29T00:15:24;99379.75;;;20.96
74321;BMP280;62738;45.772;4.804;2023-05-29T00:17:51;99373.31;;;20.93
74321;BMP280;62738;45.772;4.804;2023-05-29T00:20:18;99368.75;;;20.84
74321;BMP280;62738;45.772;4.804;2023-05-29T00:22:45;99366.22;;;20.92
74321;BMP280;62738;45.772;4.804;2023-05-29T00:25:11;99380.16;;;20.88
74321;BMP280;62738;45.772;4.804;2023-05-29T00:27:38;99374.72;;;20.75
74321;BMP280;62738;45.772;4.804;2023-05-29T00:30:05;99380.81;;;20.67
74321;BMP280;62738;45.772;4.804;2023-05-29T00:32:32;99374.59;;;20.71
74321;BMP280;62738;45.772;4.804;2023-05-29T00:34:59;99387.22;;;20.70
74321;BMP280;62738;45.772;4.804;2023-05-29T00:37:26;99379.72;;;20.76
74321;BMP280;62738;45.772;4.804;2023-05-29T00:39:52;99382.25;;;20.68
74321;BMP280;62738;45.772;4.804;2023-05-29T00:42:19;99382.09;;;20.64
74321;BMP280;62738;45.772;4.804;2023-05-29T00:44:46;99386.13;;;20.59
74321;BMP280;62738;45.772;4.804;2023-05-29T00:47:12;99387.75;;;20.46
74321;BMP280;62738;45.772;4.804;2023-05-29T00:49:40;99384.50;;;20.34
74321;BMP280;62738;45.772;4.804;2023-05-29T00:52:07;99389.22;;;20.48
74321;BMP280;62738;45.772;4.804;2023-05-29T00:54:35;99393.38;;;20.46
74321;BMP280;62738;45.772;4.804;2023-05-29T00:57:04;99392.78;;;20.30
74321;BMP280;62738;45.772;4.804;2023-05-29T00:59:33;99390.22;;;20.19
74321;BMP280;62738;45.772;4.804;2023-05-29T01:02:02;99389.66;;;20.22
74321;BMP280;62738;45.772;4.804;2023-05-29T01:04:29;99389.16;;;20.28
74321;BMP280;62738;45.772;4.804;2023-05-29T01:07:00;99394.97;;;20.32
74321;BMP280;62738;45.772;4.804;2023-05-29T01:09:29;99395.19;;;20.38
74321;BMP280;62738;45.772;4.804;2023-05-29T01:14:38;99395.19;;;20.20
74321;BMP280;62738;45.772;4.804;2023-05-29T01:17:19;99401.53;;;20.21
74321;BMP280;62738;45.772;4.804;2023-05-29T01:20:04;99390.84;;;20.35
74321;BMP280;62738;45.772;4.804;2023-05-29T01:28:42;99398.66;;;20.19
74321;BMP280;62738;45.772;4.804;2023-05-29T01:31:12;99392.19;;;20.16
74321;BMP280;62738;45.772;4.804;2023-05-29T01:33:42;99402.53;;;20.27
74321;BMP280;62738;45.772;4.804;2023-05-29T01:36:08;99401.88;;;20.29
74321;BMP280;62738;45.772;4.804;2023-05-29T01:38:35;99399.63;;;20.25
74321;BMP280;62738;45.772;4.804;2023-05-29T01:41:03;99404.06;;;20.13
74321;BMP280;62738;45.772;4.804;2023-05-29T01:43:30;99404.06;;;20.13
74321;BMP280;62738;45.772;4.804;2023-05-29T01:45:57;99406.16;;;20.12
74321;BMP280;62738;45.772;4.804;2023-05-29T01:48:24;99399.47;;;20.04
74321;BMP280;62738;45.772;4.804;2023-05-29T01:50:52;99401.19;;;20.11
74321;BMP280;62738;45.772;4.804;2023-05-29T01:53:19;99398.97;;;19.91
74321;BMP280;62738;45.772;4.804;2023-05-29T01:55:46;99393.94;;;20.06
74321;BMP280;62738;45.772;4.804;2023-05-29T01:58:13;99394.22;;;19.78
74321;BMP280;62738;45.772;4.804;2023-05-29T02:00:41;99392.44;;;19.87
74321;BMP280;62738;45.772;4.804;2023-05-29T02:03:08;99392.94;;;19.81
74321;BMP280;62738;45.772;4.804;2023-05-29T02:05:38;99398.78;;;19.87
74321;BMP280;62738;45.772;4.804;2023-05-29T02:08:05;99392.19;;;19.81
74321;BMP280;62738;45.772;4.804;2023-05-29T02:10:32;99387.97;;;19.80
74321;BMP280;62738;45.772;4.804;2023-05-29T02:12:58;99384.38;;;19.62
74321;BMP280;62738;45.772;4.804;2023-05-29T02:15:25;99396.19;;;19.58
74321;BMP280;62738;45.772;4.804;2023-05-29T02:17:52;99394.31;;;19.47
74321;BMP280;62738;45.772;4.804;2023-05-29T02:20:19;99395.34;;;19.56
74321;BMP280;62738;45.772;4.804;2023-05-29T02:22:46;99396.19;;;19.58
74321;BMP280;62738;45.772;4.804;2023-05-29T02:25:13;99387.56;;;19.54
74321;BMP280;62738;45.772;4.804;2023-05-29T02:27:39;99382.19;;;19.60
74321;BMP280;62738;45.772;4.804;2023-05-29T02:30:07;99381.00;;;19.65
74321;BMP280;62738;45.772;4.804;2023-05-29T02:32:34;99377.63;;;19.69
74321;BMP280;62738;45.772;4.804;2023-05-29T02:35:02;99376.09;;;19.66
74321;BMP280;62738;45.772;4.804;2023-05-29T02:37:29;99381.00;;;19.65
74321;BMP280;62738;45.772;4.804;2023-05-29T02:39:55;99383.22;;;19.51
74321;BMP280;62738;45.772;4.804;2023-05-29T02:42:22;99388.91;;;19.53
74321;BMP280;62738;45.772;4.804;2023-05-29T02:44:48;99380.78;;;19.43
74321;BMP280;62738;45.772;4.804;2023-05-29T02:47:15;99387.97;;;19.31
74321;BMP280;62738;45.772;4.804;2023-05-29T02:49:42;99389.16;;;19.26
74321;BMP280;62738;45.772;4.804;2023-05-29T02:52:09;99392.25;;;19.32
74321;BMP280;62738;45.772;4.804;2023-05-29T02:54:36;99390.44;;;19.23
74321;BMP280;62738;45.772;4.804;2023-05-29T02:57:02;99390.50;;;19.25
74321;BMP280;62738;45.772;4.804;2023-05-29T02:59:31;99386.09;;;19.20
74321;BMP280;62738;45.772;4.804;2023-05-29T03:01:58;99388.38;;;19.08
74321;BMP280;62738;45.772;4.804;2023-05-29T03:04:26;99387.91;;;19.13
74321;BMP280;62738;45.772;4.804;2023-05-29T03:06:53;99383.47;;;19.08
74321;BMP280;62738;45.772;4.804;2023-05-29T03:09:20;99381.66;;;18.99
74321;BMP280;62738;45.772;4.804;2023-05-29T03:11:47;99384.47;;;18.99
74321;BMP280;62738;45.772;4.804;2023-05-29T03:14:17;99379.28;;;18.93
74321;BMP280;62738;45.772;4.804;2023-05-29T03:16:45;99385.38;;;18.88
74321;BMP280;62738;45.772;4.804;2023-05-29T03:19:12;99389.06;;;18.92
74321;BMP280;62738;45.772;4.804;2023-05-29T03:21:38;99391.25;;;18.94
74321;BMP280;62738;45.772;4.804;2023-05-29T03:24:05;99390.31;;;18.87
74321;BMP280;62738;45.772;4.804;2023-05-29T03:26:32;99391.97;;;18.79
74321;BMP280;62738;45.772;4.804;2023-05-29T03:28:59;99386.38;;;18.79
74321;BMP280;62738;45.772;4.804;2023-05-29T03:31:26;99388.38;;;18.76
74321;BMP280;62738;45.772;4.804;2023-05-29T03:33:52;99398.34;;;18.79
74321;BMP280;62738;45.772;4.804;2023-05-29T03:36:19;99400.13;;;18.57
74321;BMP280;62738;45.772;4.804;2023-05-29T03:38:46;99394.16;;;18.65
74321;BMP280;62738;45.772;4.804;2023-05-29T03:41:12;99389.44;;;18.69
74321;BMP280;62738;45.772;4.804;2023-05-29T03:43:39;99398.22;;;18.62
74321;BMP280;62738;45.772;4.804;2023-05-29T03:46:06;99407.16;;;18.42
74321;BMP280;62738;45.772;4.804;2023-05-29T03:48:33;99409.47;;;18.32
74321;BMP280;62738;45.772;4.804;2023-05-29T03:51:00;99411.66;;;18.34
74321;BMP280;62738;45.772;4.804;2023-05-29T03:53:26;99412.53;;;18.52
74321;BMP280;62738;45.772;4.804;2023-05-29T03:55:53;99416.38;;;18.59
74321;BMP280;62738;45.772;4.804;2023-05-29T03:58:20;99411.53;;;18.61
74321;BMP280;62738;45.772;4.804;2023-05-29T04:00:47;99411.03;;;18.65
74321;BMP280;62738;45.772;4.804;2023-05-29T04:03:13;99416.91;;;18.55
74321;BMP280;62738;45.772;4.804;2023-05-29T04:05:41;99415.81;;;18.33
74321;BMP280;62738;45.772;4.804;2023-05-29T04:08:08;99422.56;;;18.41
74321;BMP280;62738;45.772;4.804;2023-05-29T04:10:41;99423.50;;;18.46
74321;BMP280;62738;45.772;4.804;2023-05-29T04:13:09;99428.03;;;18.53
74321;BMP280;62738;45.772;4.804;2023-05-29T04:15:36;99420.19;;;18.36
74321;BMP280;62738;45.772;4.804;2023-05-29T04:18:03;99424.00;;;18.42
74321;BMP280;62738;45.772;4.804;2023-05-29T04:20:30;99418.00;;;18.64
74321;BMP280;62738;45.772;4.804;2023-05-29T04:22:57;99415.00;;;18.60
74321;BMP280;62738;45.772;4.804;2023-05-29T04:25:23;99429.31;;;18.50
74321;BMP280;62738;45.772;4.804;2023-05-29T04:27:50;99429.13;;;18.62
74321;BMP280;62738;45.772;4.804;2023-05-29T04:30:17;99436.88;;;18.47
74321;BMP280;62738;45.772;4.804;2023-05-29T04:32:44;99441.09;;;18.62
74321;BMP280;62738;45.772;4.804;2023-05-29T04:35:11;99450.63;;;18.71
74321;BMP280;62738;45.772;4.804;2023-05-29T04:37:37;99445.09;;;18.73
74321;BMP280;62738;45.772;4.804;2023-05-29T04:40:06;99454.78;;;18.70
74321;BMP280;62738;45.772;4.804;2023-05-29T04:42:38;99456.06;;;18.67
74321;BMP280;62738;45.772;4.804;2023-05-29T04:45:08;99458.00;;;18.78
74321;BMP280;62738;45.772;4.804;2023-05-29T04:47:37;99460.41;;;18.70
74321;BMP280;62738;45.772;4.804;2023-05-29T04:50:14;99447.28;;;18.59
74321;BMP280;62738;45.772;4.804;2023-05-29T04:52:40;99455.63;;;18.72
74321;BMP280;62738;45.772;4.804;2023-05-29T04:55:08;99457.75;;;18.87
74321;BMP280;62738;45.772;4.804;2023-05-29T04:57:35;99464.44;;;18.96
74321;BMP280;62738;45.772;4.804;2023-05-29T05:00:03;99451.75;;;18.95
74321;BMP280;62738;45.772;4.804;2023-05-29T05:02:41;99460.06;;;18.93
74321;BMP280;62738;45.772;4.804;2023-05-29T05:05:10;99453.59;;;19.04
74321;BMP280;62738;45.772;4.804;2023-05-29T05:07:36;99460.38;;;19.15
74321;BMP280;62738;45.772;4.804;2023-05-29T05:10:04;99458.19;;;19.29
74321;BMP280;62738;45.772;4.804;2023-05-29T05:12:31;99452.94;;;19.37
74321;BMP280;62738;45.772;4.804;2023-05-29T05:14:57;99453.66;;;19.22
74321;BMP280;62738;45.772;4.804;2023-05-29T05:17:24;99453.75;;;19.08
74321;BMP280;62738;45.772;4.804;2023-05-29T05:19:51;99455.69;;;19.19
74321;BMP280;62738;45.772;4.804;2023-05-29T05:22:20;99468.38;;;19.20
74321;BMP280;62738;45.772;4.804;2023-05-29T05:24:46;99470.47;;;19.20
74321;BMP280;62738;45.772;4.804;2023-05-29T05:27:13;99467.56;;;19.49
74321;BMP280;62738;45.772;4.804;2023-05-29T05:29:40;99463.19;;;19.46
74321;BMP280;62738;45.772;4.804;2023-05-29T05:32:07;99472.97;;;19.29
74321;BMP280;62738;45.772;4.804;2023-05-29T05:34:34;99476.72;;;19.50
74321;BMP280;62738;45.772;4.804;2023-05-29T05:37:00;99481.19;;;19.72
74321;BMP280;62738;45.772;4.804;2023-05-29T05:39:29;99478.41;;;19.90
74321;BMP280;62738;45.772;4.804;2023-05-29T05:41:56;99475.38;;;19.84
74321;BMP280;62738;45.772;4.804;2023-05-29T05:44:22;99480.78;;;19.95
74321;BMP280;62738;45.772;4.804;2023-05-29T05:46:49;99489.44;;;19.84
74321;BMP280;62738;45.772;4.804;2023-05-29T05:49:16;99483.41;;;19.58
74321;BMP280;62738;45.772;4.804;2023-05-29T05:51:42;99489.38;;;19.66
74321;BMP280;62738;45.772;4.804;2023-05-29T05:54:09;99489.06;;;19.91
74321;BMP280;62738;45.772;4.804;2023-05-29T05:56:36;99494.75;;;20.09
74321;BMP280;62738;45.772;4.804;2023-05-29T05:59:03;99490.69;;;19.96
74321;BMP280;62738;45.772;4.804;2023-05-29T06:01:29;99491.75;;;20.05
74321;BMP280;62738;45.772;4.804;2023-05-29T06:03:56;99492.88;;;20.16
74321;BMP280;62738;45.772;4.804;2023-05-29T06:06:23;99486.69;;;20.02
74321;BMP280;62738;45.772;4.804;2023-05-29T06:08:50;99488.09;;;19.85
74321;BMP280;62738;45.772;4.804;2023-05-29T06:11:17;99488.94;;;20.05
74321;BMP280;62738;45.772;4.804;2023-05-29T06:13:43;99485.91;;;20.52
74321;BMP280;62738;45.772;4.804;2023-05-29T06:16:10;99484.22;;;20.63
74321;BMP280;62738;45.772;4.804;2023-05-29T06:18:37;99488.78;;;20.54
74321;BMP280;62738;45.772;4.804;2023-05-29T06:21:03;99488.31;;;20.77
74321;BMP280;62738;45.772;4.804;2023-05-29T06:23:31;99496.81;;;20.79
74321;BMP280;62738;45.772;4.804;2023-05-29T06:25:58;99494.94;;;21.04
74321;BMP280;62738;45.772;4.804;2023-05-29T06:28:24;99489.16;;;21.00
74321;BMP280;62738;45.772;4.804;2023-05-29T06:30:51;99497.25;;;20.89
74321;BMP280;62738;45.772;4.804;2023-05-29T06:33:18;99494.66;;;21.15
74321;BMP280;62738;45.772;4.804;2023-05-29T06:35:46;99495.69;;;21.04
74321;BMP280;62738;45.772;4.804;2023-05-29T06:38:13;99490.03;;;20.86
74321;BMP280;62738;45.772;4.804;2023-05-29T06:40:40;99487.31;;;20.88
74321;BMP280;62738;45.772;4.804;2023-05-29T06:43:07;99496.03;;;20.77
74321;BMP280;62738;45.772;4.804;2023-05-29T06:45:36;99493.75;;;20.91
74321;BMP280;62738;45.772;4.804;2023-05-29T06:48:02;99489.97;;;20.84
74321;BMP280;62738;45.772;4.804;2023-05-29T06:50:29;99494.66;;;21.15
74321;BMP280;62738;45.772;4.804;2023-05-29T06:52:56;99496.63;;;20.73
74321;BMP280;62738;45.772;4.804;2023-05-29T06:55:23;99485.38;;;20.75
74321;BMP280;62738;45.772;4.804;2023-05-29T06:57:49;99489.75;;;21.16
74321;BMP280;62738;45.772;4.804;2023-05-29T07:00:17;99489.84;;;21.18
74321;BMP280;62738;45.772;4.804;2023-05-29T07:02:43;99486.44;;;20.84
74321;BMP280;62738;45.772;4.804;2023-05-29T07:05:10;99485.19;;;20.69
74321;BMP280;62738;45.772;4.804;2023-05-29T07:07:37;99493.03;;;20.90
74321;BMP280;62738;45.772;4.804;2023-05-29T07:10:04;99482.78;;;20.99
74321;BMP280;62738;45.772;4.804;2023-05-29T07:12:32;99485.25;;;21.09
74321;BMP280;62738;45.772;4.804;2023-05-29T07:14:59;99497.88;;;21.25
74321;BMP280;62738;45.772;4.804;2023-05-29T07:17:25;99486.09;;;21.31
74321;BMP280;62738;45.772;4.804;2023-05-29T07:19:52;99482.00;;;21.16
74321;BMP280;62738;45.772;4.804;2023-05-29T07:22:20;99493.56;;;21.05
74321;BMP280;62738;45.772;4.804;2023-05-29T07:24:47;99496.63;;;21.11
74321;BMP280;62738;45.772;4.804;2023-05-29T07:27:14;99489.81;;;21.37
74321;BMP280;62738;45.772;4.804;2023-05-29T07:29:40;99492.34;;;21.10
74321;BMP280;62738;45.772;4.804;2023-05-29T07:32:08;99497.16;;;21.25
74321;BMP280;62738;45.772;4.804;2023-05-29T07:34:35;99519.72;;;20.70
74321;BMP280;62738;45.772;4.804;2023-05-29T07:37:04;99504.25;;;20.71
74321;BMP280;62738;45.772;4.804;2023-05-29T07:39:32;99494.41;;;20.89
74321;BMP280;62738;45.772;4.804;2023-05-29T07:41:59;99503.19;;;20.98
74321;BMP280;62738;45.772;4.804;2023-05-29T07:44:27;99504.97;;;21.26
74321;BMP280;62738;45.772;4.804;2023-05-29T07:46:54;99510.47;;;21.62
74321;BMP280;62738;45.772;4.804;2023-05-29T07:49:21;99501.44;;;21.87
74321;BMP280;62738;45.772;4.804;2023-05-29T07:51:48;99499.47;;;21.91
74321;BMP280;62738;45.772;4.804;2023-05-29T07:54:14;99509.41;;;21.73
74321;BMP280;62738;45.772;4.804;2023-05-29T07:56:44;99500.16;;;21.90
74321;BMP280;62738;45.772;4.804;2023-05-29T07:59:12;99501.53;;;21.89
74321;BMP280;62738;45.772;4.804;2023-05-29T08:01:39;99503.44;;;22.26
74321;BMP280;62738;45.772;4.804;2023-05-29T08:04:05;99503.50;;;22.28
74321;BMP280;62738;45.772;4.804;2023-05-29T08:06:33;99497.78;;;21.82
74321;BMP280;62738;45.772;4.804;2023-05-29T08:09:00;99494.63;;;22.16
74321;BMP280;62738;45.772;4.804;2023-05-29T08:11:28;99494.19;;;22.23
74321;BMP280;62738;45.772;4.804;2023-05-29T08:13:55;99491.53;;;21.86
74321;BMP280;62738;45.772;4.804;2023-05-29T08:16:22;99493.72;;;22.09
74321;BMP280;62738;45.772;4.804;2023-05-29T08:18:49;99488.38;;;21.98
74321;BMP280;62738;45.772;4.804;2023-05-29T08:21:16;99490.34;;;22.15
74321;BMP280;62738;45.772;4.804;2023-05-29T08:23:43;99490.09;;;22.97
74321;BMP280;62738;45.772;4.804;2023-05-29T08:26:10;99487.19;;;22.95
74321;BMP280;62738;45.772;4.804;2023-05-29T08:28:37;99493.19;;;22.82
74321;BMP280;62738;45.772;4.804;2023-05-29T08:31:07;99488.28;;;23.34
74321;BMP280;62738;45.772;4.804;2023-05-29T08:33:33;99490.88;;;24.37
74321;BMP280;62738;45.772;4.804;2023-05-29T08:36:00;99491.13;;;24.49
74321;BMP280;62738;45.772;4.804;2023-05-29T08:38:27;99496.22;;;24.54
74321;BMP280;62738;45.772;4.804;2023-05-29T08:40:56;99496.19;;;24.23
74321;BMP280;62738;45.772;4.804;2023-05-29T08:43:25;99493.97;;;24.49
74321;BMP280;62738;45.772;4.804;2023-05-29T08:45:59;99482.06;;;23.95
74321;BMP280;62738;45.772;4.804;2023-05-29T08:48:28;99488.72;;;24.06
74321;BMP280;62738;45.772;4.804;2023-05-29T08:50:56;99502.00;;;24.29
74321;BMP280;62738;45.772;4.804;2023-05-29T08:53:24;99482.28;;;24.65
74321;BMP280;62738;45.772;4.804;2023-05-29T08:55:52;99491.59;;;24.39
74321;BMP280;62738;45.772;4.804;2023-05-29T08:58:19;99489.69;;;24.48
74321;BMP280;62738;45.772;4.804;2023-05-29T09:00:49;99480.75;;;24.60
74321;BMP280;62738;45.772;4.804;2023-05-29T09:03:16;99488.28;;;25.17
74321;BMP280;62738;45.772;4.804;2023-05-29T09:05:44;99488.81;;;25.07
74321;BMP280;62738;45.772;4.804;2023-05-29T09:08:11;99483.25;;;25.13
74321;BMP280;62738;45.772;4.804;2023-05-29T09:10:40;99474.97;;;24.89
74321;BMP280;62738;45.772;4.804;2023-05-29T09:13:07;99496.22;;;24.88
74321;BMP280;62738;45.772;4.804;2023-05-29T09:15:36;99485.13;;;25.00
74321;BMP280;62738;45.772;4.804;2023-05-29T09:18:05;99477.28;;;25.35
74321;BMP280;62738;45.772;4.804;2023-05-29T09:20:32;99482.91;;;25.33
74321;BMP280;62738;45.772;4.804;2023-05-29T09:23:03;99487.84;;;25.32
74321;BMP280;62738;45.772;4.804;2023-05-29T09:25:33;99483.00;;;25.39
74321;BMP280;62738;45.772;4.804;2023-05-29T09:28:04;99479.97;;;25.27
74321;BMP280;62738;45.772;4.804;2023-05-29T09:30:39;99482.38;;;25.42
74321;BMP280;62738;45.772;4.804;2023-05-29T09:33:07;99479.31;;;25.70
74321;BMP280;62738;45.772;4.804;2023-05-29T09:35:35;99481.41;;;25.28
74321;BMP280;62738;45.772;4.804;2023-05-29T09:38:02;99477.41;;;25.43
74321;BMP280;62738;45.772;4.804;2023-05-29T09:40:39;99479.16;;;25.60
74321;BMP280;62738;45.772;4.804;2023-05-29T09:43:15;99473.91;;;25.86
74321;BMP280;62738;45.772;4.804;2023-05-29T09:45:47;99477.91;;;25.71
74321;BMP280;62738;45.772;4.804;2023-05-29T09:48:16;99472.03;;;25.61
74321;BMP280;62738;45.772;4.804;2023-05-29T09:50:44;99475.56;;;25.20
74321;BMP280;62738;45.772;4.804;2023-05-29T09:53:21;99470.31;;;25.04
74321;BMP280;62738;45.772;4.804;2023-05-29T09:55:54;99471.88;;;25.51
74321;BMP280;62738;45.772;4.804;2023-05-29T09:58:22;99463.22;;;26.91
74321;BMP280;62738;45.772;4.804;2023-05-29T10:00:50;99462.03;;;27.92
74321;BMP280;62738;45.772;4.804;2023-05-29T10:03:18;99464.88;;;27.96
74321;BMP280;62738;45.772;4.804;2023-05-29T10:05:49;99463.47;;;25.57
74321;BMP280;62738;45.772;4.804;2023-05-29T10:08:18;99460.06;;;26.64
74321;BMP280;62738;45.772;4.804;2023-05-29T10:11:05;99460.06;;;26.10
74321;BMP280;62738;45.772;4.804;2023-05-29T10:13:40;99465.38;;;27.64
74321;BMP280;62738;45.772;4.804;2023-05-29T10:16:10;99455.97;;;28.64
74321;BMP280;62738;45.772;4.804;2023-05-29T10:18:43;99463.72;;;30.43
74321;BMP280;62738;45.772;4.804;2023-05-29T10:21:11;99460.56;;;30.95
74321;BMP280;62738;45.772;4.804;2023-05-29T10:23:40;99458.22;;;29.60
74321;BMP280;62738;45.772;4.804;2023-05-29T10:26:12;99459.63;;;29.84
74321;BMP280;62738;45.772;4.804;2023-05-29T10:28:46;99458.59;;;28.14
74321;BMP280;62738;45.772;4.804;2023-05-29T10:31:24;99460.94;;;28.60
74321;BMP280;62738;45.772;4.804;2023-05-29T10:34:02;99457.50;;;31.24
74321;BMP280;62738;45.772;4.804;2023-05-29T10:37:01;99461.66;;;30.21
74321;BMP280;62738;45.772;4.804;2023-05-29T10:39:31;99450.78;;;30.54
74321;BMP280;62738;45.772;4.804;2023-05-29T10:41:57;99456.75;;;29.03
74321;BMP280;62738;45.772;4.804;2023-05-29T10:49:25;99455.28;;;30.13
74321;BMP280;62738;45.772;4.804;2023-05-29T10:51:52;99453.88;;;29.96
74321;BMP280;62738;45.772;4.804;2023-05-29T10:54:21;99448.94;;;29.76
74321;BMP280;62738;45.772;4.804;2023-05-29T10:57:00;99463.19;;;29.74
74321;BMP280;62738;45.772;4.804;2023-05-29T10:59:28;99465.25;;;28.73
74321;BMP280;62738;45.772;4.804;2023-05-29T11:01:55;99460.00;;;28.13
74321;BMP280;62738;45.772;4.804;2023-05-29T11:06:54;99448.63;;;28.17
74321;BMP280;62738;45.772;4.804;2023-05-29T11:09:35;99448.50;;;27.94
74321;BMP280;62738;45.772;4.804;2023-05-29T11:12:20;99441.97;;;27.80
74321;BMP280;62738;45.772;4.804;2023-05-29T11:15:08;99446.22;;;27.81
74321;BMP280;62738;45.772;4.804;2023-05-29T11:20:08;99441.03;;;27.53
74321;BMP280;62738;45.772;4.804;2023-05-29T11:23:07;99440.94;;;27.43
74321;BMP280;62738;45.772;4.804;2023-05-29T11:25:36;99440.47;;;27.69
74321;BMP280;62738;45.772;4.804;2023-05-29T11:28:04;99435.78;;;27.21
74321;BMP280;62738;45.772;4.804;2023-05-29T11:30:48;99438.72;;;27.29
74321;BMP280;62738;45.772;4.804;2023-05-29T11:33:23;99430.06;;;27.17
74321;BMP280;62738;45.772;4.804;2023-05-29T11:35:56;99430.34;;;27.52
74321;BMP280;62738;45.772;4.804;2023-05-29T11:38:25;99419.50;;;27.34
74321;BMP280;62738;45.772;4.804;2023-05-29T11:40:55;99425.81;;;27.22
74321;BMP280;62738;45.772;4.804;2023-05-29T11:43:22;99432.31;;;27.31
74321;BMP280;62738;45.772;4.804;2023-05-29T11:45:49;99424.09;;;26.91
74321;BMP280;62738;45.772;4.804;2023-05-29T11:48:16;99420.94;;;26.65
74321;BMP280;62738;45.772;4.804;2023-05-29T11:50:43;99414.03;;;26.82
74321;BMP280;62738;45.772;4.804;2023-05-29T11:53:12;99418.75;;;26.61
74321;BMP280;62738;45.772;4.804;2023-05-29T11:55:39;99428.31;;;26.28
74321;BMP280;62738;45.772;4.804;2023-05-29T11:58:06;99414.56;;;26.10
74321;BMP280;62738;45.772;4.804;2023-05-29T12:00:37;99396.72;;;26.62
74321;BMP280;62738;45.772;4.804;2023-05-29T12:03:05;99406.75;;;26.67
74321;BMP280;62738;45.772;4.804;2023-05-29T12:05:47;99400.88;;;26.53
74321;BMP280;62738;45.772;4.804;2023-05-29T12:08:16;99412.72;;;26.93
74321;BMP280;62738;45.772;4.804;2023-05-29T12:10:49;99401.03;;;27.35
74321;BMP280;62738;45.772;4.804;2023-05-29T12:13:18;99398.22;;;27.43
74321;BMP280;62738;45.772;4.804;2023-05-29T12:15:47;99397.75;;;27.71
74321;BMP280;62738;45.772;4.804;2023-05-29T12:18:14;99404.84;;;27.70
74321;BMP280;62738;45.772;4.804;2023-05-29T12:20:41;99396.09;;;27.46
74321;BMP280;62738;45.772;4.804;2023-05-29T12:23:08;99392.72;;;27.67
74321;BMP280;62738;45.772;4.804;2023-05-29T12:25:35;99399.34;;;28.00
74321;BMP280;62738;45.772;4.804;2023-05-29T12:28:04;99389.50;;;28.33
74321;BMP280;62738;45.772;4.804;2023-05-29T12:30:31;99390.88;;;28.26
74321;BMP280;62738;45.772;4.804;2023-05-29T12:33:02;99393.72;;;28.20
74321;BMP280;62738;45.772;4.804;2023-05-29T12:35:30;99389.91;;;27.75
74321;BMP280;62738;45.772;4.804;2023-05-29T12:38:07;99380.53;;;27.59
74321;BMP280;62738;45.772;4.804;2023-05-29T12:40:35;99388.00;;;28.18
74321;BMP280;62738;45.772;4.804;2023-05-29T12:43:06;99385.25;;;28.50
74321;BMP280;62738;45.772;4.804;2023-05-29T12:45:33;99378.16;;;28.60
74321;BMP280;62738;45.772;4.804;2023-05-29T12:48:04;99363.16;;;28.55
74321;BMP280;62738;45.772;4.804;2023-05-29T12:50:37;99358.06;;;28.23
74321;BMP280;62738;45.772;4.804;2023-05-29T12:53:10;99352.28;;;28.05
74321;BMP280;62738;45.772;4.804;2023-05-29T12:55:38;99359.66;;;28.93
74321;BMP280;62738;45.772;4.804;2023-05-29T12:58:07;99358.19;;;28.60
74321;BMP280;62738;45.772;4.804;2023-05-29T13:00:35;99366.78;;;29.00
74321;BMP280;62738;45.772;4.804;2023-05-29T13:03:02;99350.38;;;28.82
74321;BMP280;62738;45.772;4.804;2023-05-29T13:05:29;99363.97;;;29.18
74321;BMP280;62738;45.772;4.804;2023-05-29T13:07:56;99362.47;;;28.95
74321;BMP280;62738;45.772;4.804;2023-05-29T13:10:24;99348.91;;;29.26
74321;BMP280;62738;45.772;4.804;2023-05-29T13:12:52;99348.19;;;29.27
74321;BMP280;62738;45.772;4.804;2023-05-29T13:15:22;99349.66;;;29.08
74321;BMP280;62738;45.772;4.804;2023-05-29T13:17:49;99346.78;;;29.16
74321;BMP280;62738;45.772;4.804;2023-05-29T13:20:16;99351.81;;;29.17
74321;BMP280;62738;45.772;4.804;2023-05-29T13:22:45;99340.38;;;29.03
74321;BMP280;62738;45.772;4.804;2023-05-29T13:25:14;99333.22;;;29.39
74321;BMP280;62738;45.772;4.804;2023-05-29T13:27:43;99330.25;;;29.73
74321;BMP280;62738;45.772;4.804;2023-05-29T13:30:10;99333.91;;;29.41
74321;BMP280;62738;45.772;4.804;2023-05-29T13:32:37;99335.34;;;28.60
74321;BMP280;62738;45.772;4.804;2023-05-29T13:35:05;99333.22;;;28.84
74321;BMP280;62738;45.772;4.804;2023-05-29T13:37:32;99332.50;;;29.28
74321;BMP280;62738;45.772;4.804;2023-05-29T13:39:58;99326.69;;;29.66
74321;BMP280;62738;45.772;4.804;2023-05-29T13:42:25;99324.25;;;30.31
74321;BMP280;62738;45.772;4.804;2023-05-29T13:44:52;99317.13;;;30.30
74321;BMP280;62738;45.772;4.804;2023-05-29T13:47:19;99322.38;;;29.73
74321;BMP280;62738;45.772;4.804;2023-05-29T13:49:46;99322.00;;;31.29
74321;BMP280;62738;45.772;4.804;2023-05-29T13:52:13;99316.13;;;31.98
74321;BMP280;62738;45.772;4.804;2023-05-29T13:54:39;99311.16;;;32.44
74321;BMP280;62738;45.772;4.804;2023-05-29T13:57:06;99307.22;;;32.65
74321;BMP280;62738;45.772;4.804;2023-05-29T13:59:34;99306.59;;;32.16
74321;BMP280;62738;45.772;4.804;2023-05-29T14:02:01;99301.63;;;30.88
74321;BMP280;62738;45.772;4.804;2023-05-29T14:04:29;99306.53;;;31.02
74321;BMP280;62738;45.772;4.804;2023-05-29T14:06:57;99298.09;;;32.55
74321;BMP280;62738;45.772;4.804;2023-05-29T14:09:24;99306.31;;;33.85
74321;BMP280;62738;45.772;4.804;2023-05-29T14:11:54;99296.50;;;33.41
74321;BMP280;62738;45.772;4.804;2023-05-29T14:14:22;99288.34;;;31.30
74321;BMP280;62738;45.772;4.804;2023-05-29T14:16:49;99299.06;;;30.52
74321;BMP280;62738;45.772;4.804;2023-05-29T14:19:17;99292.59;;;31.33
74321;BMP280;62738;45.772;4.804;2023-05-29T14:21:44;99292.59;;;32.38
74321;BMP280;62738;45.772;4.804;2023-05-29T14:24:11;99287.22;;;32.16
74321;BMP280;62738;45.772;4.804;2023-05-29T14:26:39;99287.59;;;31.88
74321;BMP280;62738;45.772;4.804;2023-05-29T14:29:06;99274.78;;;31.81
74321;BMP280;62738;45.772;4.804;2023-05-29T14:31:41;99280.72;;;31.67
74321;BMP280;62738;45.772;4.804;2023-05-29T14:34:08;99284.91;;;31.76